Terminal Aerodrome Forecast
Issued by NWS

Home | Current Version | Previous Version | Text Only | Print | Product List | Glossary On
Versions: 1 2 3 4 5 6 7 8 9 10 11 12 13 14 15 16 17 18
000
FTUS43 KEAX 212337
TAFMKC
TAF
KMKC 212337Z 2200/2224 16008KT P6SM VCTS SCT040CB
     FM220200 17008KT 4SM -TSRA OVC035CB
     FM220900 27005KT P6SM VCTS OVC035CB
     FM221200 35005KT P6SM SCT025
     FM221600 36011KT P6SM SCT050=

USA.gov is the U.S. government's official web portal to all federal, state and local government web resources and services.